ADDS METAR Data INFO
IDs: Format: Raw Decoded Include TAF

Data at: 0921 UTC 13 Dec 2017

PPIT 130856Z AUTO 13015KT 10SM OVC024 02/01 A2934 RMK AO2 SLP936 60000 T00170011 400171061 53014 FZRANO TSNO
PPIT 130756Z AUTO 12011KT 10SM OVC028 02/01 A2932 RMK AO2 UPE07RAB07E08 SLP930 P0000 T00170006 FZRANO TSNO
PPIT 130713Z AUTO 13010KT 10SM FEW028 SCT032 OVC050 01/01 A2930 RMK AO2 UPE07RAB07E08 P0000 FZRANO TSNO
PPIT 130656Z AUTO 13010KT 10SM UP BKN028 OVC055 01/01 A2930 RMK AO2 UPE03B21RAB03E12 SLP922 P0000 T00110006 FZRANO TSNO
PPIT 130556Z AUTO 13006KT 10SM UP OVC034 01/01 A2929 RMK AO2 RAE25UPB25 SLP919 P0000 60005 T00110006 10017 20011 53010 FZRANO TSNO
PPIT 130456Z AUTO 11010KT 10SM -RA SCT030 BKN038 OVC060 02/01 A2928 RMK AO2 UPE0358B38E52RAB52 SLP915 P0000 T00170006 FZRANO TSNO
PPIT 130356Z AUTO 09010KT 10SM UP BKN046 BKN055 OVC095 02/01 A2926 RMK AO2 RAB0258E33UPB07E15B48 SLP909 P0000 T00170006 FZRANO TSNO
PPIT 130256Z AUTO 08011KT 10SM FEW039 BKN050 OVC070 02/01 A2926 RMK AO2 RAE44 SLP909 P0003 60005 T00170006 50000 FZRANO TSNO
PPIT 130236Z AUTO 07009KT 10SM -RA FEW024 BKN036 OVC047 02/01 A2926 RMK AO2 P0003 FZRANO TSNO
PPIT 130211Z AUTO 10010KT 8SM -RA BKN028 OVC036 02/01 A2926 RMK AO2 P0002 FZRANO TSNO
PPIT 130156Z AUTO 09012KT 10SM -RA BKN034 OVC043 02/01 A2926 RMK AO2 RAE28B45UPB39E45 SLP909 P0002 T00170006 FZRANO TSNO
PPIT 130056Z AUTO 07009KT 10SM -RA SCT031 BKN045 OVC055 01/00 A2926 RMK AO2 RAB41 SLP909 P0000 T00110000 FZRANO TSNO
PPIT 122356Z AUTO 07008KT 10SM FEW050 OVC070 02/00 A2926 RMK AO2 UPB15E20RAB20E43 SLP908 P0000 60000 T00170000 10017 21017 58008 FZRANO TSNO
PPIT 122256Z AUTO 07013KT 10SM SCT050 SCT065 BKN100 M01/M02 A2927 RMK AO2 SLP913 T10111017 FZRANO TSNO
PPIT 122156Z AUTO 08009KT 10SM BKN110 M01/M02 A2928 RMK AO2 SLP916 T10061017 FZRANO TSNO
PPIT 122056Z AUTO 09013KT 10SM FEW120 00/M01 A2929 RMK AO2 SLP917 T00001011 58002 FZRANO TSNO
PPIT 121956Z AUTO 09010KT 10SM CLR M01/M02 A2929 RMK AO2 SLP918 T10061017 FZRANO TSNO
PPIT 121856Z AUTO 07009KT 10SM CLR 00/M01 A2929 RMK AO2 SLP919 T00001011 FZRANO TSNO
PPIT 121656Z AUTO 08010KT 10SM BKN060 01/M01 A2929 RMK AO2 SLP919 T00061006 FZRANO TSNO
PPIT 121556Z AUTO 06010KT 10SM SCT045 OVC060 01/00 A2929 RMK AO2 RAE02 SLP918 P0000 T00060000 FZRANO TSNO
PPIT 121456Z AUTO 05006KT 10SM -RA BKN047 OVC065 01/00 A2929 RMK AO2 UPE31RAB31 SLP919 P0000 60001 T00060000 56009 FZRANO TSNO
PPIT 121356Z AUTO 04008KT 10SM UP OVC035 00/00 A2930 RMK AO2 SLP920 P0001 T00000000 FZRANO TSNO
PPIT 121256Z AUTO 02007KT 10SM UP SCT030 OVC037 M01/M01 A2931 RMK AO2 UPE30B52SNB30E52 SLP924 P0000 T10061011 FZRANO TSNO
PPIT 121134Z AUTO 04007KT 10SM UP OVC032 M02/M02 A2932 RMK AO2 UPB17SNE17 P0000 FZRANO TSNO
PPIT 121103Z AUTO 06007KT 9SM -SN BKN029 BKN034 OVC050 M03/M03 A2933 RMK AO2 P0000 FZRANO TSNO
PPIT 121056Z AUTO 06008KT 10SM -SN SCT029 BKN035 OVC055 M03/M03 A2933 RMK AO2 SNB53 SLP932 P0000 T10281033 FZRANO TSNO
PPIT 120956Z AUTO 04007KT 10SM OVC055 M04/M04 A2934 RMK AO2 SLP936 T10391039 FZRANO TSNO
PPIT 120856Z AUTO 04007KT 10SM SCT055 BKN085 M07/M07 A2935 RMK AO2 SLP939 T10671072 410281072 51002 FZRANO TSNO
PPIT 120756Z AUTO 04009KT 10SM SCT085 M06/M06 A2935 RMK AO2 SLP939 T10561061 FZRANO TSNO
PPIT 120656Z AUTO 04006KT 10SM FEW006 OVC075 M06/M06 A2935 RMK AO2 SLP939 T10561061 FZRANO TSNO
PPIT 120610Z AUTO 06005KT 10SM BKN005 OVC025 M04/M05 A2935 RMK AO2 FZRANO TSNO
PPIT 120603Z AUTO 07006KT 10SM BKN007 BKN018 OVC025 M04/M05 A2935 RMK AO2 CIG 004V011 FZRANO TSNO
PPIT 120556Z AUTO 09006KT 10SM SCT007 BKN010 OVC025 M04/M05 A2935 RMK AO2 SNB0457E44 SLP937 P0000 60000 T10441050 11033 21050 51018 FZRANO TSNO
PPIT 120549Z AUTO 08006KT 9SM SCT007 BKN016 OVC025 M04/M04 A2934 RMK AO2 SNB0457E44 P0000 FZRANO TSNO
PPIT 120516Z AUTO 09005KT 7SM -SN BKN007 OVC017 M04/M04 A2934 RMK AO2 SNB0457 P0000 FZRANO TSNO
PPIT 120507Z AUTO 10006KT 8SM -SN SCT007 BKN017 OVC023 M04/M04 A2933 RMK AO2 SNB0457 P0000 FZRANO TSNO
PPIT 120456Z AUTO 10006KT 10SM BKN021 OVC120 M04/M04 A2933 RMK AO2 SNE43 SLP932 P0000 T10391044 FZRANO TSNO
PPIT 120441Z AUTO 08004KT 9SM -SN SCT008 OVC120 M04/M04 A2932 RMK AO2 P0000 FZRANO TSNO
PPIT 120406Z AUTO 09004KT 5SM -SN BR BKN008 OVC015 M03/M04 A2931 RMK AO2 P0000 FZRANO TSNO
PPIT 120401Z AUTO 11005KT 3SM -SN BR SCT010 OVC015 M03/M04 A2931 RMK AO2 P0000 FZRANO TSNO
PPIT 120356Z AUTO 11005KT 1 3/4SM -SN BR SCT010 BKN015 OVC030 M03/M04 A2931 RMK AO2 SLP926 P0000 T10331039 FZRANO TSNO
PPIT 120348Z AUTO 11005KT 1 3/4SM -SN BR SCT010 BKN015 OVC030 M03/M04 A2931 RMK AO2 P0000 FZRANO TSNO
PPIT 120329Z AUTO 10006KT 7SM -SN SCT010 BKN015 OVC060 M03/M04 A2930 RMK AO2 P0000 FZRANO TSNO
PPIT 120314Z AUTO 10006KT 6SM -SN BR SCT010 BKN014 OVC055 M03/M04 A2930 RMK AO2 P0000 FZRANO TSNO
PPIT 120256Z AUTO 09005KT 8SM -SN SCT018 BKN025 OVC046 M04/M04 A2929 RMK AO2 SLP920 P0000 60000 T10391039 51023 FZRANO TSNO
PPIT 120233Z AUTO 06005KT 9SM -SN BKN025 BKN030 OVC048 M04/M04 A2929 RMK AO2 P0000 FZRANO TSNO
PPIT 120223Z AUTO 04004KT 9SM -SN SCT024 SCT031 OVC049 M04/M04 A2928 RMK AO2 P0000 FZRANO TSNO
PPIT 120156Z AUTO 06004KT 8SM -SN BKN022 OVC047 M04/M04 A2927 RMK AO2 SLP912 P0000 T10391044 FZRANO TSNO
PPIT 120117Z AUTO 03004KT 3SM -SN BR OVC024 M04/M05 A2926 RMK AO2 P0000 FZRANO TSNO
PPIT 120111Z AUTO 03004KT 1 1/2SM -SN BR OVC024 M04/M05 A2925 RMK AO2 VIS 1V5 P0000 FZRANO TSNO
PPIT 120103Z AUTO 02004KT 2SM -SN BR OVC024 M04/M05 A2925 RMK AO2 VIS 1 1/4V5 P0000 FZRANO TSNO
PPIT 120024Z AUTO 01004KT 7SM -SN BKN028 OVC040 M04/M05 A2924 RMK AO2 P0000 FZRANO TSNO
PPIT 112356Z AUTO 36004KT 6SM -SN BR OVC044 M05/M06 A2923 RMK AO2 SNB40 SLP896 P0000 60000 T10501056 11039 21050 53024 FZRANO TSNO
PPIT 112256Z AUTO 01005KT 10SM OVC075 M04/M06 A2920 RMK AO2 SLP887 T10441056 FZRANO TSNO
PPIT 112156Z AUTO 01007KT 10SM BKN060 BKN075 BKN110 M05/M06 A2917 RMK AO2 SLP879 T10501056 FZRANO TSNO
PPIT 112128Z AUTO 02007KT 10SM SCT013 OVC080 M05/M06 A2916 RMK AO2 FZRANO TSNO